Skiff — 5VCS7 — position and weather

sailwx.info

Track history (hours):
 
Tides and Currents Weather Stations Pressure Air Temp Water Temp Dewpoint Dewpoint Depression Visibility Wind Speed Wind Dir Waves Ship Positions

Skiff

Last reported at 2018-Feb-04 01:28 UTC. Time now 2018-Feb-25 06:12 UTC.
Position N 31°13' E 029°44'.
Warning: this ship's position is 21 days out of date.

Length 84 m; draft 3.2 m.

Type: Cargo ship. MMSI: 671480000.

Date/timePositionNaut miles runAvg speedWind from/ knotsBaromVisibWave heightAir tempDewpointWater temp
2018-Feb-04 01:28N 31°13' E 029°44'  
2018-Jan-29 20:14N 40°44' E 028°53'3 8.4
2018-Jan-29 19:54N 40°45' E 028°57'4 8.1
2018-Jan-29 19:26N 40°44' E 029°02'4 8.5
2018-Jan-29 18:59N 40°44' E 029°07'4 8.5
2018-Jan-29 18:30N 40°44' E 029°12'4 8.6
2018-Jan-29 18:00N 40°44' E 029°18'5 8.6
2018-Jan-29 17:26N 40°45' E 029°24'5 8.2
2018-Jan-29 16:47N 40°45' E 029°31'3 7.4
2018-Jan-29 16:23N 40°46' E 029°35'  
2018-Jan-26 18:02N 40°44' E 029°28'2 7.0
2018-Jan-26 17:40N 40°44' E 029°25'1 6.7
2018-Jan-26 17:28N 40°44' E 029°23'3 6.5
2018-Jan-26 16:57N 40°44' E 029°18'3 6.9
2018-Jan-26 16:30N 40°44' E 029°14'4 7.2
2018-Jan-26 16:00N 40°44' E 029°10'4 7.6
2018-Jan-26 15:28N 40°45' E 029°04'4 8.0
2018-Jan-26 15:00N 40°47' E 028°60'4 0.3
2018-Jan-26 00:08N 40°51' E 028°58'0 2.4
2018-Jan-26 00:00N 40°51' E 028°58'  
Track history (hours):
 
Tides and Currents Weather Stations Pressure Air Temp Water Temp Dewpoint Dewpoint Depression Visibility Wind Speed Wind Dir Waves Ship Positions

Skiff

Last reported at 2018-Feb-04 01:28 UTC. Time now 2018-Feb-25 06:12 UTC.
Position N 31°13' E 029°44'.
Warning: this ship's position is 21 days out of date.

Length 84 m; draft 3.2 m.

Type: Cargo ship. MMSI: 671480000.

Date/timePositionNaut miles runAvg speedWind from/ knotsBaromVisibWave heightAir tempDewpointWater temp
2018-Feb-04 01:28N 31°13' E 029°44'  
2018-Jan-29 20:14N 40°44' E 028°53'3 8.4
2018-Jan-29 19:54N 40°45' E 028°57'4 8.1
2018-Jan-29 19:26N 40°44' E 029°02'4 8.5
2018-Jan-29 18:59N 40°44' E 029°07'4 8.5
2018-Jan-29 18:30N 40°44' E 029°12'4 8.6
2018-Jan-29 18:00N 40°44' E 029°18'5 8.6
2018-Jan-29 17:26N 40°45' E 029°24'5 8.2
2018-Jan-29 16:47N 40°45' E 029°31'3 7.4
2018-Jan-29 16:23N 40°46' E 029°35'  
2018-Jan-26 18:02N 40°44' E 029°28'2 7.0
2018-Jan-26 17:40N 40°44' E 029°25'1 6.7
2018-Jan-26 17:28N 40°44' E 029°23'3 6.5
2018-Jan-26 16:57N 40°44' E 029°18'3 6.9
2018-Jan-26 16:30N 40°44' E 029°14'4 7.2
2018-Jan-26 16:00N 40°44' E 029°10'4 7.6
2018-Jan-26 15:28N 40°45' E 029°04'4 8.0
2018-Jan-26 15:00N 40°47' E 028°60'4 0.3
2018-Jan-26 00:08N 40°51' E 028°58'0 2.4
2018-Jan-26 00:00N 40°51' E 028°58'  

Dump ship's entire track history